Mount Princeton, Colorado
Current Conditions -  °F | °C
As of 6:14 PM on Saturday 20 Dec 2014 (Local Time) from K7BM Reporting Station
Overcast Overcast  
Wind Chill: 26°   Ceiling: 6500
Heat Index: 32°   Visibility: 10mi
Dew Point: 14°   Wind: 7mph
Humidity: 47%   Direction: 270°W
Pressure: 30.02"   Gusts: 24mph
Location:  38.7194°N, 106.276°W
Report Text: K7BM 210114Z AUTO 27006G21KT 10SM SCT039 BKN065 OVC080 00/M10 A3002 RMK AO2
Loading
Personal Weather Stations






























Interactive Weather Map New forecast layout! Learn more

10-Day Weather Forecast

Advertisements
Track Severe Weather on mobile